createdAt,value
2018-01-23T16:53:08.806Z,65.90
2018-01-23T16:55:36.397Z,54.37
2018-01-23T16:58:04.013Z,74.33
2018-01-23T17:00:31.610Z,37.00
2018-01-23T17:02:59.146Z,28.67
2018-01-23T17:05:26.746Z,33.13
2018-01-23T17:07:54.294Z,27.23
2018-01-23T17:10:21.878Z,27.07
2018-01-23T17:12:49.471Z,36.07
2018-01-23T17:15:17.014Z,44.70
2018-01-23T17:17:44.553Z,57.40
2018-01-23T17:20:12.155Z,56.87
2018-01-23T17:22:39.734Z,43.53
2018-01-23T17:25:07.265Z,38.07
2018-01-23T17:27:34.845Z,109.00
2018-01-23T17:30:02.396Z,174.07
2018-01-23T17:32:29.930Z,158.73
2018-01-23T17:34:57.620Z,175.83
2018-01-23T17:37:25.157Z,159.50
2018-01-23T17:39:52.694Z,122.87
2018-01-23T17:42:20.303Z,111.60
2018-01-23T17:44:47.902Z,98.10
2018-01-23T17:47:15.486Z,89.77
2018-01-23T17:49:43.026Z,96.97
2018-01-23T17:52:10.573Z,109.70
2018-01-23T17:54:38.126Z,102.20
2018-01-23T17:57:05.665Z,112.97
2018-01-23T17:59:33.238Z,98.83
2018-01-23T18:02:00.774Z,87.20
2018-01-23T18:04:28.306Z,82.23
2018-01-23T18:06:55.850Z,148.80
2018-01-23T18:09:23.390Z,162.10
2018-01-23T18:11:50.965Z,185.10
2018-01-23T18:14:18.510Z,179.23
2018-01-23T18:16:46.059Z,220.23
2018-01-23T18:19:13.610Z,173.87
2018-01-23T18:21:41.149Z,124.67
2018-01-23T18:24:08.717Z,89.90
2018-01-23T18:26:36.250Z,96.17
2018-01-23T18:29:03.798Z,86.30
2018-01-23T18:31:31.342Z,97.73
2018-01-23T18:33:58.886Z,107.67
2018-01-23T18:36:26.490Z,126.40
2018-01-23T18:38:54.022Z,125.57
2018-01-23T18:41:21.566Z,119.53
2018-01-23T18:43:49.118Z,118.93
2018-01-23T18:46:16.667Z,133.67
2018-01-23T18:48:44.270Z,151.17
2018-01-23T18:51:11.813Z,154.67
2018-01-23T18:53:39.354Z,138.00
2018-01-23T18:56:06.905Z,138.93
2018-01-23T18:58:34.442Z,155.53
2018-01-23T19:01:02.019Z,139.17
2018-01-23T19:03:30.201Z,141.43
2018-01-23T19:05:57.734Z,117.47
2018-01-23T19:08:25.287Z,102.77
2018-01-23T19:10:52.824Z,98.13
2018-01-23T19:13:21.350Z,85.63
2018-01-23T19:15:48.942Z,95.77
2018-01-23T19:18:16.542Z,100.37
2018-01-23T19:20:44.102Z,99.03
2018-01-23T19:23:11.706Z,97.20
2018-01-23T19:25:39.584Z,100.27
2018-01-23T19:28:07.514Z,103.13
2018-01-23T19:30:35.178Z,105.70
2018-01-23T19:33:02.752Z,94.87
2018-01-23T19:35:30.292Z,85.93
2018-01-23T19:37:57.943Z,82.97
2018-01-23T19:40:25.555Z,87.53
2018-01-23T19:42:53.098Z,75.23
2018-01-23T19:45:20.647Z,86.83
2018-01-23T19:47:48.189Z,95.80
2018-01-23T19:50:15.834Z,64.00
2018-01-23T19:52:43.475Z,86.53
2018-01-23T19:55:11.039Z,83.40
2018-01-23T19:57:38.618Z,78.10
2018-01-23T20:00:06.165Z,67.40
2018-01-23T20:02:33.748Z,66.60
2018-01-23T20:05:01.286Z,62.90
2018-01-23T20:07:28.821Z,66.60
2018-01-23T20:09:56.435Z,52.57
2018-01-23T20:12:24.031Z,57.73
2018-01-23T20:14:51.622Z,51.83
2018-01-23T20:17:19.169Z,52.77
2018-01-23T20:19:46.762Z,80.03
2018-01-23T20:22:14.424Z,91.33
2018-01-23T20:24:41.964Z,92.27
2018-01-23T20:27:09.552Z,89.50
2018-01-23T20:29:37.082Z,84.77
2018-01-23T20:32:04.622Z,89.10
2018-01-23T20:34:32.344Z,86.60
2018-01-23T20:36:59.749Z,102.57
2018-01-23T20:39:27.339Z,92.30
2018-01-23T20:41:54.883Z,82.80
2018-01-23T20:44:22.422Z,96.27
2018-01-23T20:46:49.976Z,148.13
2018-01-23T20:49:17.513Z,148.13
2018-01-23T20:51:45.136Z,71.60
2018-01-23T20:54:12.666Z,107.93
2018-01-23T20:56:40.264Z,85.30
2018-01-23T20:59:07.806Z,90.07
2018-01-23T21:01:35.358Z,92.70
2018-01-23T21:04:03.003Z,92.70
2018-01-23T21:06:30.542Z,91.40
2018-01-23T21:08:58.142Z,109.13
2018-01-23T21:11:25.682Z,77.00
2018-01-23T21:13:53.218Z,75.30
2018-01-23T21:16:20.822Z,67.67
2018-01-23T21:18:48.350Z,60.40
2018-01-23T21:21:15.898Z,57.00
2018-01-23T21:23:43.522Z,55.00
2018-01-23T21:26:11.058Z,60.33
2018-01-23T21:28:38.648Z,64.10
2018-01-23T21:31:06.178Z,67.87
2018-01-23T21:33:33.713Z,65.27
2018-01-23T21:36:01.318Z,61.93
2018-01-23T21:38:28.851Z,53.70
2018-01-23T21:40:56.434Z,47.80
2018-01-23T21:43:24.022Z,53.80
2018-01-23T21:45:51.554Z,51.13
2018-01-23T21:48:19.102Z,58.53
2018-01-23T21:50:46.639Z,48.20
2018-01-23T21:53:14.278Z,55.10
2018-01-23T21:55:41.874Z,53.20
2018-01-23T21:58:09.471Z,58.10
2018-01-23T22:00:37.014Z,50.90
2018-01-23T22:03:04.607Z,51.07
2018-01-23T22:05:32.190Z,52.70
2018-01-23T22:07:59.725Z,43.03
2018-01-23T22:10:27.317Z,37.33
2018-01-23T22:12:54.922Z,42.47
2018-01-23T22:15:22.457Z,37.90
2018-01-23T22:17:50.096Z,37.37
2018-01-23T22:20:17.633Z,45.50
2018-01-23T22:22:45.226Z,53.57
2018-01-23T22:25:12.770Z,51.60
2018-01-23T22:27:40.310Z,53.20
2018-01-23T22:30:07.974Z,67.50
2018-01-23T22:32:35.566Z,52.60
2018-01-23T22:35:03.098Z,51.17
2018-01-23T22:37:30.710Z,49.57
2018-01-23T22:39:58.242Z,49.20
2018-01-23T22:42:25.886Z,40.80
2018-01-23T22:44:53.426Z,36.40
2018-01-23T22:47:20.961Z,33.33
2018-01-23T22:49:48.505Z,36.73
2018-01-23T22:52:16.038Z,29.40
2018-01-23T22:54:43.614Z,38.53
2018-01-23T22:57:11.150Z,32.03
2018-01-23T22:59:38.750Z,34.50
2018-01-23T23:02:06.354Z,32.23
2018-01-23T23:04:33.886Z,35.83
2018-01-23T23:07:01.465Z,33.90
2018-01-23T23:09:29.063Z,28.70
2018-01-23T23:11:56.663Z,29.07
2018-01-23T23:14:24.209Z,25.60
2018-01-23T23:16:51.737Z,24.83
2018-01-23T23:19:19.347Z,24.00
2018-01-23T23:21:46.886Z,20.07
2018-01-23T23:24:14.478Z,25.50
2018-01-23T23:26:42.111Z,26.97
2018-01-23T23:29:09.710Z,25.30
2018-01-23T23:31:37.285Z,23.50
2018-01-23T23:34:04.838Z,21.00
2018-01-23T23:36:32.370Z,21.67
2018-01-23T23:38:59.917Z,23.50
2018-01-23T23:41:27.445Z,25.83
2018-01-23T23:43:55.082Z,17.67
2018-01-23T23:46:22.614Z,20.00
2018-01-23T23:48:50.145Z,21.27
2018-01-23T23:51:17.686Z,21.83
2018-01-23T23:53:45.284Z,20.77
2018-01-23T23:56:12.927Z,22.37
2018-01-23T23:58:40.467Z,19.30
